createdAt,value
2022-10-13T00:00:58.641Z,10.35
2022-10-13T00:03:24.922Z,10.38
2022-10-13T00:05:51.456Z,10.00
2022-10-13T00:08:19.758Z,10.13
2022-10-13T00:10:47.104Z,10.65
2022-10-13T00:13:13.733Z,10.57
2022-10-13T00:15:40.647Z,10.18
2022-10-13T00:18:07.314Z,10.70
2022-10-13T00:20:34.180Z,9.95
2022-10-13T00:23:00.409Z,10.90
2022-10-13T00:25:26.864Z,9.65
2022-10-13T00:27:53.244Z,9.95
2022-10-13T00:30:19.467Z,10.52
2022-10-13T00:32:45.893Z,10.00
2022-10-13T00:35:12.189Z,10.13
2022-10-13T00:37:38.423Z,9.73
2022-10-13T00:40:04.887Z,9.85
2022-10-13T00:42:31.105Z,10.65
2022-10-13T00:45:09.662Z,9.45
2022-10-13T00:47:41.160Z,10.00
2022-10-13T00:50:09.614Z,11.88
2022-10-13T00:52:36.721Z,10.27
2022-10-13T00:55:03.919Z,10.40
2022-10-13T00:57:30.243Z,10.70
2022-10-13T00:59:56.716Z,10.65
2022-10-13T01:02:23.707Z,10.52
2022-10-13T01:04:50.100Z,10.85
2022-10-13T01:07:17.211Z,10.38
2022-10-13T01:09:43.438Z,10.55
2022-10-13T01:12:48.271Z,10.45
2022-10-13T01:15:25.601Z,10.10
2022-10-13T01:18:10.391Z,10.50
2022-10-13T01:20:36.598Z,9.90
2022-10-13T01:23:05.576Z,11.00
2022-10-13T01:25:37.712Z,10.98
2022-10-13T01:28:10.293Z,9.80
2022-10-13T01:30:42.751Z,10.35
2022-10-13T01:33:13.927Z,10.13
2022-10-13T01:35:44.583Z,10.20
2022-10-13T01:38:29.500Z,10.38
2022-10-13T01:40:58.867Z,10.05
2022-10-13T01:43:28.661Z,11.30
2022-10-13T01:45:54.870Z,10.40
2022-10-13T01:48:21.194Z,10.65
2022-10-13T01:50:48.452Z,10.45
2022-10-13T01:53:17.481Z,10.48
2022-10-13T01:55:54.485Z,10.80
2022-10-13T01:58:21.607Z,10.65
2022-10-13T02:00:53.742Z,10.65
2022-10-13T02:03:38.919Z,10.65
2022-10-13T02:06:24.101Z,10.13
2022-10-13T02:08:53.318Z,10.57
2022-10-13T02:11:20.803Z,10.68
2022-10-13T02:14:07.279Z,10.25
2022-10-13T02:16:39.538Z,10.20
2022-10-13T02:19:06.726Z,10.13
2022-10-13T02:21:33.447Z,10.50
2022-10-13T02:23:59.724Z,9.88
2022-10-13T02:26:26.070Z,9.63
2022-10-13T02:28:52.559Z,10.50
2022-10-13T02:31:18.822Z,10.27
2022-10-13T02:33:45.192Z,10.32
2022-10-13T02:36:11.481Z,10.23
2022-10-13T02:38:37.709Z,10.68
2022-10-13T02:41:03.932Z,9.68
2022-10-13T02:43:30.156Z,10.80
2022-10-13T02:45:56.430Z,10.40
2022-10-13T02:48:22.933Z,11.02
2022-10-13T02:50:49.140Z,10.05
2022-10-13T02:53:15.372Z,10.32
2022-10-13T02:55:41.611Z,10.45
2022-10-13T02:58:07.867Z,10.23
2022-10-13T03:00:34.135Z,9.68
2022-10-13T03:03:00.400Z,10.18
2022-10-13T03:05:26.643Z,10.02
2022-10-13T03:07:52.890Z,10.30
2022-10-13T03:10:19.095Z,10.60
2022-10-13T03:12:45.389Z,10.73
2022-10-13T03:15:11.643Z,10.85
2022-10-13T03:17:37.880Z,10.13
2022-10-13T03:20:04.881Z,10.18
2022-10-13T03:22:31.953Z,10.73
2022-10-13T03:24:58.210Z,10.73
2022-10-13T03:27:24.511Z,10.75
2022-10-13T03:29:50.734Z,10.25
2022-10-13T03:32:17.318Z,11.07
2022-10-13T03:34:43.691Z,10.07
2022-10-13T03:37:09.915Z,10.68
2022-10-13T03:39:36.143Z,10.88
2022-10-13T03:42:02.842Z,10.68
2022-10-13T03:44:29.082Z,11.88
2022-10-13T03:46:55.299Z,10.70
2022-10-13T03:49:21.541Z,10.95
2022-10-13T03:51:47.755Z,11.98
2022-10-13T03:54:14.070Z,11.07
2022-10-13T03:56:40.731Z,10.82
2022-10-13T03:59:07.138Z,11.27
2022-10-13T04:01:33.707Z,11.57
2022-10-13T04:04:02.115Z,10.93
2022-10-13T04:06:28.660Z,11.63
2022-10-13T04:08:54.961Z,10.88
2022-10-13T04:11:21.696Z,11.27
2022-10-13T04:13:48.081Z,11.60
2022-10-13T04:16:21.820Z,11.25
2022-10-13T04:18:52.491Z,11.88
2022-10-13T04:21:19.184Z,11.43
2022-10-13T04:23:45.430Z,11.35
2022-10-13T04:26:21.876Z,11.25
2022-10-13T04:28:48.947Z,12.38
2022-10-13T04:31:15.598Z,11.25
2022-10-13T04:33:42.146Z,12.52
2022-10-13T04:36:10.190Z,11.38
2022-10-13T04:38:36.493Z,11.95
2022-10-13T04:41:04.071Z,10.95
2022-10-13T04:43:30.714Z,11.50
2022-10-13T04:46:00.996Z,12.02
2022-10-13T04:48:27.219Z,11.10
2022-10-13T04:51:04.002Z,12.38
2022-10-13T04:53:30.638Z,11.43
2022-10-13T04:55:59.969Z,11.25
2022-10-13T04:58:26.180Z,12.25
2022-10-13T05:00:52.441Z,11.07
2022-10-13T05:03:18.719Z,11.35
2022-10-13T05:05:45.096Z,11.52
2022-10-13T05:08:11.367Z,11.50
2022-10-13T05:10:37.592Z,11.35
2022-10-13T05:13:03.966Z,12.20
2022-10-13T05:15:30.187Z,11.85
2022-10-13T05:17:56.447Z,11.18
2022-10-13T05:20:22.676Z,12.35
2022-10-13T05:22:48.899Z,11.57
2022-10-13T05:25:15.132Z,12.35
2022-10-13T05:27:41.427Z,11.82
2022-10-13T05:30:08.045Z,11.43
2022-10-13T05:32:34.876Z,11.27
2022-10-13T05:35:01.152Z,11.55
2022-10-13T05:37:27.398Z,11.68
2022-10-13T05:39:53.770Z,12.35
2022-10-13T05:42:20.256Z,11.77
2022-10-13T05:44:46.748Z,11.82
2022-10-13T05:47:12.955Z,11.50
2022-10-13T05:49:39.729Z,12.40
2022-10-13T05:52:08.758Z,11.63
2022-10-13T05:54:36.467Z,11.98
2022-10-13T05:57:04.475Z,12.38
2022-10-13T05:59:33.358Z,12.40
2022-10-13T06:02:01.072Z,12.68
2022-10-13T06:04:31.621Z,12.48
2022-10-13T06:06:57.872Z,13.02
2022-10-13T06:09:24.111Z,12.27
2022-10-13T06:11:50.353Z,12.20
2022-10-13T06:14:16.625Z,12.20
2022-10-13T06:16:42.917Z,12.57
2022-10-13T06:19:09.141Z,12.63
2022-10-13T06:21:35.603Z,12.75
2022-10-13T06:24:02.242Z,12.27
2022-10-13T06:26:28.536Z,12.40
2022-10-13T06:28:59.273Z,12.63
2022-10-13T06:31:26.122Z,12.73
2022-10-13T06:33:52.383Z,12.77
2022-10-13T06:36:18.609Z,12.95
2022-10-13T06:38:44.856Z,13.63
2022-10-13T06:41:12.536Z,13.40
2022-10-13T06:43:40.419Z,12.77
2022-10-13T06:46:07.208Z,12.82
2022-10-13T06:48:33.568Z,12.77
2022-10-13T06:51:04.061Z,13.48
2022-10-13T06:53:30.440Z,13.70
2022-10-13T06:56:00.481Z,12.98
2022-10-13T06:58:26.846Z,14.03
2022-10-13T07:00:53.255Z,13.20
2022-10-13T07:03:19.534Z,13.57
2022-10-13T07:05:45.759Z,13.80
2022-10-13T07:08:12.235Z,14.23
2022-10-13T07:10:38.943Z,13.65
2022-10-13T07:13:05.341Z,13.35
2022-10-13T07:15:31.582Z,13.48
2022-10-13T07:17:57.825Z,13.73
2022-10-13T07:20:24.522Z,13.73
2022-10-13T07:22:53.745Z,14.05
2022-10-13T07:25:20.002Z,14.50
2022-10-13T07:27:46.328Z,14.43
2022-10-13T07:30:12.975Z,15.15
2022-10-13T07:32:41.789Z,14.65
2022-10-13T07:35:08.690Z,14.43
2022-10-13T07:37:35.094Z,14.60
2022-10-13T07:40:01.505Z,15.40
2022-10-13T07:42:27.735Z,15.25
2022-10-13T07:44:53.943Z,15.32
2022-10-13T07:47:20.472Z,15.50
2022-10-13T07:49:47.002Z,15.52
2022-10-13T07:52:13.244Z,16.27
2022-10-13T07:54:39.460Z,16.90
2022-10-13T07:57:05.773Z,16.30
2022-10-13T07:59:33.092Z,17.17
2022-10-13T08:02:00.616Z,16.58
2022-10-13T08:04:31.048Z,17.33
2022-10-13T08:06:57.482Z,17.55
2022-10-13T08:09:24.121Z,17.70
2022-10-13T08:11:50.370Z,18.67
2022-10-13T08:14:16.707Z,19.17
2022-10-13T08:16:48.533Z,18.05
2022-10-13T08:19:17.911Z,18.52
2022-10-13T08:21:58.323Z,19.00
2022-10-13T08:24:26.148Z,18.85
2022-10-13T08:26:52.391Z,18.88
2022-10-13T08:29:23.496Z,19.75
2022-10-13T08:31:50.937Z,17.92
2022-10-13T08:34:17.388Z,17.88
2022-10-13T08:36:43.800Z,17.65
2022-10-13T08:39:10.254Z,17.85
2022-10-13T08:41:38.908Z,17.25
2022-10-13T08:47:25.317Z,16.02
2022-10-13T08:49:55.390Z,16.75
2022-10-13T08:52:26.647Z,16.35
2022-10-13T08:54:54.157Z,15.82
2022-10-13T08:57:20.738Z,15.02
2022-10-13T08:59:47.660Z,14.52
2022-10-13T09:02:16.134Z,13.25
2022-10-13T09:04:43.892Z,12.55
2022-10-13T09:07:10.124Z,12.73
2022-10-13T09:09:37.400Z,13.95
2022-10-13T09:12:04.488Z,13.45
2022-10-13T09:14:32.778Z,14.30
2022-10-13T09:19:41.475Z,14.48
2022-10-13T09:22:23.593Z,13.38
2022-10-13T09:25:13.125Z,13.43
2022-10-13T09:27:44.204Z,12.93
2022-10-13T09:30:29.109Z,13.00
2022-10-13T09:33:04.408Z,13.77
2022-10-13T09:35:34.251Z,15.05
2022-10-13T09:38:10.011Z,13.47
2022-10-13T09:40:36.872Z,13.48
2022-10-13T09:43:06.680Z,12.93
2022-10-13T09:45:32.908Z,11.88
2022-10-13T09:48:00.479Z,11.63
2022-10-13T09:50:27.786Z,12.55
2022-10-13T09:52:54.367Z,11.88
2022-10-13T09:55:32.387Z,10.90
2022-10-13T09:58:15.758Z,11.40
2022-10-13T10:00:42.292Z,11.68
2022-10-13T10:03:11.404Z,11.00
2022-10-13T10:05:51.434Z,10.95
2022-10-13T10:08:33.365Z,11.07
2022-10-13T10:11:09.613Z,11.70
2022-10-13T10:16:20.356Z,11.27
2022-10-13T10:18:58.635Z,12.35
2022-10-13T10:21:34.316Z,10.85
2022-10-13T10:24:20.846Z,11.57
2022-10-13T10:26:55.494Z,12.40
2022-10-13T10:29:29.261Z,11.80
2022-10-13T10:32:04.893Z,11.27
2022-10-13T10:34:31.127Z,10.63
2022-10-13T10:37:06.226Z,12.05
2022-10-13T10:39:38.292Z,10.95
2022-10-13T10:42:08.664Z,11.63
2022-10-13T10:44:36.645Z,10.95
2022-10-13T10:47:06.065Z,11.20
2022-10-13T10:49:33.724Z,10.95
2022-10-13T10:52:01.504Z,10.43
2022-10-13T10:54:33.875Z,11.88
2022-10-13T10:57:08.603Z,10.95
2022-10-13T10:59:50.581Z,11.88
2022-10-13T11:02:37.035Z,12.32
2022-10-13T11:05:06.136Z,12.35
2022-10-13T11:07:32.988Z,12.63
2022-10-13T11:09:59.264Z,12.35
2022-10-13T11:12:26.016Z,12.77
2022-10-13T11:14:55.046Z,12.15
2022-10-13T11:17:31.539Z,12.70
2022-10-13T11:19:58.171Z,13.52
2022-10-13T11:22:30.775Z,12.02
2022-10-13T11:24:58.496Z,12.48
2022-10-13T11:27:36.796Z,13.90
2022-10-13T11:30:03.439Z,12.77
2022-10-13T11:32:35.546Z,12.15
2022-10-13T11:35:17.199Z,12.55
2022-10-13T11:37:55.766Z,13.32
2022-10-13T11:40:41.427Z,12.52
2022-10-13T11:43:08.413Z,11.98
2022-10-13T11:45:34.779Z,11.55
2022-10-13T11:48:01.037Z,12.40
2022-10-13T11:50:33.643Z,11.68
2022-10-13T11:53:18.637Z,11.93
2022-10-13T11:55:51.079Z,11.30
2022-10-13T11:58:27.918Z,10.63
2022-10-13T12:01:01.347Z,12.15
2022-10-13T12:03:28.896Z,11.70
2022-10-13T12:05:57.447Z,11.15
2022-10-13T12:08:24.269Z,11.73
2022-10-13T12:10:58.257Z,12.23
2022-10-13T12:13:26.109Z,12.48
2022-10-13T12:16:03.300Z,12.23
2022-10-13T12:18:33.893Z,12.50
2022-10-13T12:21:04.550Z,11.75
2022-10-13T12:25:58.504Z,11.98
2022-10-13T12:28:26.546Z,11.02
2022-10-13T12:30:54.107Z,11.45
2022-10-13T12:33:38.790Z,11.93
2022-10-13T12:36:17.568Z,11.77
2022-10-13T12:38:47.048Z,11.05
2022-10-13T12:41:15.077Z,11.13
2022-10-13T12:43:42.414Z,11.55
2022-10-13T12:46:09.394Z,12.27
2022-10-13T12:48:36.632Z,12.18
2022-10-13T12:51:15.708Z,11.68
2022-10-13T12:53:42.185Z,11.85
2022-10-13T12:56:17.835Z,13.18
2022-10-13T12:58:44.174Z,13.73
2022-10-13T13:01:13.208Z,13.65
2022-10-13T13:03:40.205Z,13.27
2022-10-13T13:06:10.634Z,14.00
2022-10-13T13:08:37.010Z,14.63
2022-10-13T13:11:04.777Z,13.10
2022-10-13T13:13:31.086Z,13.93
2022-10-13T13:16:17.150Z,15.35
2022-10-13T13:18:44.280Z,14.55
2022-10-13T13:21:14.355Z,15.05
2022-10-13T13:23:41.207Z,14.15
2022-10-13T13:26:14.773Z,14.85
2022-10-13T13:28:51.382Z,14.60
2022-10-13T13:31:19.007Z,14.35
2022-10-13T13:33:45.933Z,13.90
2022-10-13T13:36:19.957Z,14.25
2022-10-13T13:38:46.506Z,15.95
2022-10-13T13:41:13.149Z,14.90
2022-10-13T13:43:39.419Z,14.73
2022-10-13T13:46:06.130Z,14.55
2022-10-13T13:48:32.772Z,14.93
2022-10-13T13:50:59.171Z,13.68
2022-10-13T13:53:25.395Z,14.48
2022-10-13T13:55:52.098Z,14.07
2022-10-13T13:58:18.339Z,13.88
2022-10-13T14:00:44.599Z,14.88
2022-10-13T14:03:10.820Z,13.45
2022-10-13T14:05:41.002Z,13.90
2022-10-13T14:08:07.699Z,13.30
2022-10-13T14:10:34.371Z,13.55
2022-10-13T14:13:00.707Z,13.43
2022-10-13T14:15:29.893Z,13.45
2022-10-13T14:17:56.525Z,13.20
2022-10-13T14:20:22.758Z,12.43
2022-10-13T14:22:49.084Z,12.55
2022-10-13T14:25:15.445Z,13.23
2022-10-13T14:27:41.884Z,12.18
2022-10-13T14:30:08.817Z,11.63
2022-10-13T14:32:36.801Z,11.73
2022-10-13T14:35:03.492Z,11.75
2022-10-13T14:37:33.343Z,12.32
2022-10-13T14:40:00.285Z,11.77
2022-10-13T14:42:26.552Z,12.35
2022-10-13T14:44:52.800Z,12.23
2022-10-13T14:47:19.395Z,13.00
2022-10-13T14:49:45.858Z,12.80
2022-10-13T14:52:12.192Z,12.85
2022-10-13T14:54:42.473Z,12.65
2022-10-13T14:57:15.406Z,13.13
2022-10-13T14:59:42.355Z,13.05
2022-10-13T15:02:09.379Z,13.35
2022-10-13T15:04:35.685Z,13.05
2022-10-13T15:07:01.905Z,13.10
2022-10-13T15:09:38.884Z,13.13
2022-10-13T15:12:15.374Z,12.05
2022-10-13T15:14:41.586Z,12.75
2022-10-13T15:17:07.811Z,12.80
2022-10-13T15:19:35.166Z,13.25
2022-10-13T15:22:01.367Z,12.90
2022-10-13T15:24:27.651Z,13.32
2022-10-13T15:26:53.870Z,12.90
2022-10-13T15:29:20.112Z,13.15
2022-10-13T15:31:46.399Z,13.25
2022-10-13T15:34:12.628Z,13.07
2022-10-13T15:36:38.867Z,13.50
2022-10-13T15:39:05.715Z,12.25
2022-10-13T15:41:31.942Z,13.45
2022-10-13T15:43:58.163Z,13.30
2022-10-13T15:46:26.100Z,13.10
2022-10-13T15:48:56.644Z,13.48
2022-10-13T15:51:24.166Z,13.68
2022-10-13T15:53:50.465Z,13.40
2022-10-13T15:56:16.779Z,13.55
2022-10-13T15:58:43.635Z,12.60
2022-10-13T16:01:10.635Z,12.82
2022-10-13T16:03:37.149Z,14.13
2022-10-13T16:06:04.754Z,13.82
2022-10-13T16:08:31.273Z,13.73
2022-10-13T16:10:57.502Z,14.10
2022-10-13T16:13:23.756Z,14.10
2022-10-13T16:15:59.752Z,14.32
2022-10-13T16:18:32.473Z,14.32
2022-10-13T16:20:58.695Z,15.57
2022-10-13T16:23:25.315Z,14.57
2022-10-13T16:25:51.596Z,14.70
2022-10-13T16:28:18.057Z,14.30
2022-10-13T16:30:44.435Z,14.70
2022-10-13T16:33:10.698Z,14.52
2022-10-13T16:35:36.902Z,15.10
2022-10-13T16:38:03.143Z,15.50
2022-10-13T16:40:29.400Z,15.32
2022-10-13T16:45:58.443Z,16.35
2022-10-13T16:48:25.173Z,15.20
2022-10-13T16:50:51.524Z,14.90
2022-10-13T16:53:17.973Z,15.32
2022-10-13T16:55:44.276Z,16.95
2022-10-13T16:58:10.813Z,16.48
2022-10-13T17:00:37.499Z,16.73
2022-10-13T17:03:04.020Z,17.15
2022-10-13T17:05:30.259Z,17.42
2022-10-13T17:07:56.504Z,17.55
2022-10-13T17:10:22.723Z,18.33
2022-10-13T17:12:50.740Z,18.52
2022-10-13T17:15:17.767Z,18.42
2022-10-13T17:17:44.175Z,19.45
2022-10-13T17:20:12.272Z,18.17
2022-10-13T17:22:39.100Z,18.35
2022-10-13T17:25:05.848Z,19.65
2022-10-13T17:27:35.079Z,19.25
2022-10-13T17:30:01.514Z,19.05
2022-10-13T17:32:27.872Z,19.83
2022-10-13T17:34:54.244Z,19.92
2022-10-13T17:37:20.854Z,20.83
2022-10-13T17:39:47.370Z,21.20
2022-10-13T17:42:13.599Z,19.60
2022-10-13T17:44:39.995Z,20.33
2022-10-13T17:47:07.073Z,19.80
2022-10-13T17:49:33.309Z,19.77
2022-10-13T17:51:59.536Z,19.55
2022-10-13T17:54:25.799Z,19.13
2022-10-13T17:56:54.575Z,18.30
2022-10-13T17:59:20.821Z,18.23
2022-10-13T18:01:47.146Z,17.20
2022-10-13T18:04:14.794Z,18.15
2022-10-13T18:06:41.531Z,17.05
2022-10-13T18:09:09.606Z,17.00
2022-10-13T18:11:36.114Z,17.15
2022-10-13T18:14:02.381Z,17.10
2022-10-13T18:16:28.608Z,17.65
2022-10-13T18:18:54.862Z,16.92
2022-10-13T18:21:22.552Z,17.20
2022-10-13T18:23:48.959Z,17.35
2022-10-13T18:26:16.731Z,17.55
2022-10-13T18:28:43.597Z,17.30
2022-10-13T18:31:12.053Z,17.73
2022-10-13T18:33:38.481Z,17.83
2022-10-13T18:36:11.417Z,17.15
2022-10-13T18:38:37.644Z,17.58
2022-10-13T18:41:03.927Z,17.55
2022-10-13T18:43:30.666Z,18.42
2022-10-13T18:46:00.469Z,17.70
2022-10-13T18:48:26.714Z,17.33
2022-10-13T18:50:52.972Z,17.13
2022-10-13T18:53:19.237Z,16.38
2022-10-13T18:55:45.563Z,15.85
2022-10-13T18:58:12.229Z,16.05
2022-10-13T19:00:39.832Z,15.00
2022-10-13T19:03:06.882Z,15.20
2022-10-13T19:05:39.492Z,13.48
2022-10-13T19:08:09.296Z,13.98
2022-10-13T19:10:36.232Z,13.83
2022-10-13T19:13:02.555Z,13.00
2022-10-13T19:15:28.867Z,12.50
2022-10-13T19:17:55.091Z,11.00
2022-10-13T19:20:21.358Z,10.80
2022-10-13T19:22:47.583Z,11.13
2022-10-13T19:25:13.888Z,9.93
2022-10-13T19:27:40.106Z,8.50
2022-10-13T19:30:06.566Z,8.75
2022-10-13T19:32:32.810Z,8.48
2022-10-13T19:34:59.024Z,8.23
2022-10-13T19:37:25.732Z,7.95
2022-10-13T19:39:51.950Z,8.07
2022-10-13T19:42:18.177Z,8.70
2022-10-13T19:44:44.404Z,8.77
2022-10-13T19:47:10.619Z,9.25
2022-10-13T19:49:36.908Z,9.20
2022-10-13T19:52:03.257Z,9.88
2022-10-13T19:54:33.798Z,10.05
2022-10-13T19:57:00.387Z,9.75
2022-10-13T19:59:26.644Z,10.00
2022-10-13T20:01:52.888Z,10.25
2022-10-13T20:04:20.497Z,9.80
2022-10-13T20:06:48.091Z,9.88
2022-10-13T20:09:14.473Z,9.82
2022-10-13T20:11:40.748Z,10.25
2022-10-13T20:14:07.069Z,10.32
2022-10-13T20:16:33.342Z,10.30
2022-10-13T20:19:00.512Z,10.02
2022-10-13T20:21:27.433Z,10.13
2022-10-13T20:23:53.950Z,10.43
2022-10-13T20:26:20.683Z,10.38
2022-10-13T20:28:47.780Z,10.45
2022-10-13T20:31:15.015Z,10.93
2022-10-13T20:33:41.459Z,11.20
2022-10-13T20:36:12.233Z,10.32
2022-10-13T20:41:06.151Z,11.45
2022-10-13T20:43:32.390Z,12.43
2022-10-13T20:45:59.823Z,15.25
2022-10-13T20:48:26.101Z,15.20
2022-10-13T20:50:52.312Z,17.15
2022-10-13T20:53:18.531Z,20.48
2022-10-13T20:55:45.404Z,19.05
2022-10-13T20:58:11.611Z,19.55
2022-10-13T21:00:37.878Z,19.23
2022-10-13T21:03:04.171Z,19.23
2022-10-13T21:05:32.019Z,20.38
2022-10-13T21:07:58.232Z,20.48
2022-10-13T21:10:24.840Z,20.40
2022-10-13T21:12:51.059Z,22.50
2022-10-13T21:15:17.281Z,21.40
2022-10-13T21:17:43.507Z,21.17
2022-10-13T21:20:10.052Z,21.50
2022-10-13T21:22:36.271Z,21.15
2022-10-13T21:25:02.599Z,21.33
2022-10-13T21:27:28.827Z,20.33
2022-10-13T21:29:55.043Z,20.85
2022-10-13T21:32:21.298Z,21.00
2022-10-13T21:34:47.982Z,21.80
2022-10-13T21:37:14.204Z,20.65
2022-10-13T21:39:40.445Z,21.15
2022-10-13T21:42:06.804Z,20.77
2022-10-13T21:44:33.026Z,21.50
2022-10-13T21:46:59.320Z,23.73
2022-10-13T21:49:25.552Z,23.48
2022-10-13T21:51:51.767Z,21.27
2022-10-13T21:54:18.008Z,21.52
2022-10-13T21:56:44.499Z,22.30
2022-10-13T21:59:11.545Z,20.88
2022-10-13T22:01:37.786Z,20.35
2022-10-13T22:04:04.302Z,21.63
2022-10-13T22:06:31.929Z,20.25
2022-10-13T22:08:59.039Z,20.00
2022-10-13T22:11:26.862Z,20.17
2022-10-13T22:13:53.214Z,20.40
2022-10-13T22:16:23.333Z,20.33
2022-10-13T22:18:53.529Z,23.10
2022-10-13T22:21:21.500Z,21.08
2022-10-13T22:23:48.115Z,20.10
2022-10-13T22:26:15.478Z,22.55
2022-10-13T22:28:42.515Z,18.63
2022-10-13T22:31:10.529Z,19.00
2022-10-13T22:33:37.509Z,21.67
2022-10-13T22:36:11.971Z,20.17
2022-10-13T22:38:38.231Z,20.33
2022-10-13T22:41:05.447Z,19.77
2022-10-13T22:43:31.852Z,20.23
2022-10-13T22:45:58.714Z,19.75
2022-10-13T22:48:24.935Z,19.08
2022-10-13T22:50:51.172Z,17.73
2022-10-13T22:53:17.435Z,18.70
2022-10-13T22:55:43.747Z,18.40
2022-10-13T22:58:09.971Z,17.73
2022-10-13T23:00:36.584Z,17.90
2022-10-13T23:03:02.930Z,17.77
2022-10-13T23:05:29.416Z,17.02
2022-10-13T23:07:55.947Z,16.02
2022-10-13T23:10:22.370Z,17.77
2022-10-13T23:12:48.656Z,16.30
2022-10-13T23:15:14.879Z,16.63
2022-10-13T23:17:41.158Z,15.13
2022-10-13T23:20:08.802Z,16.15
2022-10-13T23:22:35.013Z,14.45
2022-10-13T23:25:01.391Z,14.50
2022-10-13T23:27:27.855Z,15.15
2022-10-13T23:29:54.103Z,14.70
2022-10-13T23:32:20.327Z,14.35
2022-10-13T23:34:46.558Z,14.35
2022-10-13T23:37:12.784Z,14.52
2022-10-13T23:39:38.996Z,13.40
2022-10-13T23:42:05.215Z,14.38
2022-10-13T23:44:31.435Z,14.35
2022-10-13T23:46:57.715Z,15.07
2022-10-13T23:49:23.971Z,13.15
2022-10-13T23:51:50.229Z,12.43
2022-10-13T23:54:16.568Z,12.52
2022-10-13T23:56:42.798Z,14.20
2022-10-13T23:59:09.029Z,12.32
